Time;durP1;ratioP1;P1;durP2;ratioP2;P2;SDS_P1;SDS_P2;PMS_P1;PMS_P2;Temp;Humidity;BMP_temperature;BMP_pressure;BME280_temperature;BME280_humidity;BME280_pressure;Samples;Min_cycle;Max_cycle;Signal;HPM_P1;HPM_P2
2022/11/21 00:00:41;;;;;;;42.17;23.27;;;;;;;-145.18;100.00;46689.69;5015342;28;20633;-74
2022/11/21 00:03:06;;;;;;;43.33;23.87;;;;;;;-145.18;100.00;46695.56;5032201;28;20270;-75
2022/11/21 00:05:32;;;;;;;55.37;25.47;;;;;;;-145.18;100.00;46679.94;5031950;28;20390;-74
2022/11/21 00:07:57;;;;;;;46.60;25.40;;;;;;;-145.18;100.00;46683.84;5032463;28;20048;-74
2022/11/21 00:10:24;;;;;;;72.73;27.43;;;;;;;-145.18;100.00;46685.78;5032546;28;20033;-74
2022/11/21 00:12:56;;;;;;;45.73;24.13;;;;;;;-145.18;100.00;46683.84;5032283;28;20055;-74
2022/11/21 00:15:23;;;;;;;69.03;25.47;;;;;;;-145.18;100.00;46685.78;5014229;28;20715;-74
2022/11/21 00:17:49;;;;;;;48.13;24.97;;;;;;;-145.18;100.00;46683.84;5032203;28;20278;-74
2022/11/21 00:20:14;;;;;;;52.53;24.70;;;;;;;-145.18;100.00;46681.88;5032387;28;20790;-74
2022/11/21 00:22:40;;;;;;;62.77;25.37;;;;;;;-145.18;100.00;46677.97;5032281;28;20038;-73
2022/11/21 00:25:06;;;;;;;80.03;27.77;;;;;;;-145.18;100.00;46689.69;5032344;28;20750;-74
2022/11/21 00:27:31;;;;;;;57.10;25.87;;;;;;;-145.18;100.00;46687.75;5014333;28;20045;-74
2022/11/21 00:29:57;;;;;;;56.70;26.93;;;;;;;-145.18;100.00;46689.69;5031811;28;20298;-74
2022/11/21 00:32:22;;;;;;;46.77;25.47;;;;;;;-145.18;100.00;46681.88;5031826;28;20047;-74
2022/11/21 00:34:47;;;;;;;51.90;26.80;;;;;;;-145.18;100.00;46687.75;5032273;28;20033;-74
2022/11/21 00:37:13;;;;;;;54.53;26.80;;;;;;;-145.18;100.00;46687.75;5013640;28;20044;-75
2022/11/21 00:39:38;;;;;;;94.13;27.70;;;;;;;-145.18;100.00;46691.66;5032029;28;20118;-75
2022/11/21 00:42:03;;;;;;;55.50;28.57;;;;;;;-145.18;100.00;46685.78;5031596;28;20034;-74
2022/11/21 00:44:29;;;;;;;60.47;27.67;;;;;;;-145.18;100.00;46683.84;5031802;28;20498;-74
2022/11/21 00:46:54;;;;;;;64.27;27.33;;;;;;;-145.18;100.00;46685.78;5031722;28;20037;-74
2022/11/21 00:49:19;;;;;;;74.73;28.57;;;;;;;-145.18;100.00;46683.84;5013864;28;20039;-74
2022/11/21 00:51:45;;;;;;;56.77;28.60;;;;;;;-145.18;100.00;46683.84;5031551;28;20442;-74
2022/11/21 00:54:10;;;;;;;63.00;30.03;;;;;;;-145.18;100.00;46681.88;5031305;28;20057;-74
2022/11/21 00:56:35;;;;;;;65.93;29.67;;;;;;;-145.18;100.00;46681.88;5031676;28;20044;-74
2022/11/21 00:59:01;;;;;;;65.13;30.77;;;;;;;-145.18;100.00;46685.78;5031690;28;20089;-74
2022/11/21 01:01:26;;;;;;;59.47;29.07;;;;;;;-145.18;100.00;46697.50;5031263;28;20041;-73
2022/11/21 01:03:51;;;;;;;56.17;28.83;;;;;;;-145.18;100.00;46683.84;5031302;28;20061;-73
2022/11/21 01:06:17;;;;;;;49.00;27.07;;;;;;;-145.18;100.00;46687.75;5031274;28;20120;-73
2022/11/21 01:08:43;;;;;;;58.03;29.90;;;;;;;-145.18;100.00;46683.84;5030387;28;20076;-73
2022/11/21 01:11:15;;;;;;;62.97;30.97;;;;;;;-145.18;100.00;46683.84;5031123;28;20071;-74
2022/11/21 01:13:40;;;;;;;63.93;30.27;;;;;;;-145.18;100.00;46681.88;5013833;28;20277;-73
2022/11/21 01:16:11;;;;;;;55.77;28.83;;;;;;;-145.18;100.00;46689.69;5031155;28;20275;-74
2022/11/21 01:18:37;;;;;;;54.87;29.17;;;;;;;-145.18;100.00;46693.59;5031232;28;20029;-73
2022/11/21 01:21:06;;;;;;;61.93;30.87;;;;;;;-145.18;100.00;46691.66;5031031;28;20751;-74
2022/11/21 01:23:31;;;;;;;61.47;30.80;;;;;;;-145.18;100.00;46683.84;5031398;28;20086;-74
2022/11/21 01:26:05;;;;;;;56.20;29.63;;;;;;;-145.18;100.00;46683.84;5031328;28;20361;-74
2022/11/21 01:28:31;;;;;;;61.27;30.60;;;;;;;-145.18;100.00;46681.88;5031712;28;20475;-74
2022/11/21 01:31:04;;;;;;;61.40;30.43;;;;;;;-145.18;100.00;46687.75;5031272;28;20267;-74
2022/11/21 01:33:30;;;;;;;60.97;31.43;;;;;;;-145.18;100.00;46683.84;5030868;28;20262;-74
2022/11/21 01:35:55;;;;;;;66.70;32.67;;;;;;;-145.18;100.00;46681.88;5030962;28;20271;-74
2022/11/21 01:38:21;;;;;;;56.97;30.13;;;;;;;-145.18;100.00;46681.88;5030710;28;20040;-74
2022/11/21 01:40:46;;;;;;;59.20;29.77;;;;;;;-145.18;100.00;46679.94;5013304;28;20034;-74
2022/11/21 01:43:14;;;;;;;58.40;28.83;;;;;;;-145.18;100.00;46683.84;5030686;28;20033;-74
2022/11/21 01:46:13;;;;;;;56.13;29.83;;;;;;;-145.18;100.00;46685.78;5030936;28;20029;-74
2022/11/21 01:48:41;;;;;;;58.67;29.20;;;;;;;-145.18;100.00;46683.84;5030684;28;20352;-74
2022/11/21 01:51:16;;;;;;;58.43;30.47;;;;;;;-145.18;100.00;46685.78;5030496;28;20350;-74
2022/11/21 01:53:45;;;;;;;56.60;30.15;;;;;;;-145.18;100.00;46691.66;5030893;28;20292;-74
2022/11/21 01:56:11;;;;;;;56.50;28.53;;;;;;;-145.18;100.00;46695.56;5030554;28;20568;-74
2022/11/21 01:58:38;;;;;;;50.27;27.07;;;;;;;-145.18;100.00;46693.59;5030685;28;20280;-74
2022/11/21 02:01:04;;;;;;;56.63;27.37;;;;;;;-145.18;100.00;46689.69;5030543;28;20505;-74
2022/11/21 02:03:34;;;;;;;55.37;30.20;;;;;;;-145.18;100.00;46689.69;5030504;28;20302;-74
2022/11/21 02:06:00;;;;;;;53.53;27.90;;;;;;;-145.18;100.00;46691.66;5030638;28;20528;-74
2022/11/21 02:08:27;;;;;;;55.57;27.83;;;;;;;-145.18;100.00;46693.59;5030364;28;20298;-74
2022/11/21 02:11:36;;;;;;;55.83;28.40;;;;;;;-145.18;100.00;46695.56;5030807;28;20040;-74
2022/11/21 02:14:01;;;;;;;52.53;28.63;;;;;;;-145.18;100.00;46689.69;5013377;28;20809;-74
2022/11/21 02:16:27;;;;;;;49.60;26.80;;;;;;;-145.18;100.00;46695.56;5030464;28;20270;-74
2022/11/21 02:18:53;;;;;;;62.60;30.53;;;;;;;-145.18;100.00;46685.78;5030608;28;20029;-74
2022/11/21 02:21:32;;;;;;;74.60;32.83;;;;;;;-145.18;100.00;46689.69;5030332;28;20337;-74
2022/11/21 02:24:17;;;;;;;76.37;32.40;;;;;;;-145.18;100.00;46697.50;5030603;28;20034;-74
2022/11/21 02:26:45;;;;;;;71.87;33.03;;;;;;;-145.18;100.00;46687.75;5030332;28;20271;-74
2022/11/21 02:29:10;;;;;;;70.27;32.93;;;;;;;-145.18;100.00;46697.50;5030539;28;20326;-74
2022/11/21 02:31:35;;;;;;;74.53;33.97;;;;;;;-145.18;100.00;46693.59;5030129;28;20390;-74
2022/11/21 02:34:01;;;;;;;103.57;40.30;;;;;;;-145.18;100.00;46689.69;5030638;28;20041;-74
2022/11/21 02:36:36;;;;;;;108.10;40.43;;;;;;;-145.18;100.00;46691.66;5012639;28;20044;-74
2022/11/21 02:39:04;;;;;;;101.28;38.65;;;;;;;-145.18;100.00;46699.47;5030346;28;20057;-74
2022/11/21 02:41:33;;;;;;;104.50;39.33;;;;;;;-145.18;100.00;46705.31;5030326;28;20401;-74
2022/11/21 02:44:04;;;;;;;95.60;37.30;;;;;;;-145.18;100.00;46687.75;5030245;28;20346;-74
2022/11/21 02:46:33;;;;;;;91.40;37.93;;;;;;;-145.18;100.00;46689.69;5030301;28;20675;-74
2022/11/21 02:48:59;;;;;;;81.63;36.93;;;;;;;-145.18;100.00;46687.75;5030357;28;20303;-74
2022/11/21 02:51:25;;;;;;;81.77;36.40;;;;;;;-145.18;100.00;46687.75;5030019;28;20286;-74
2022/11/21 02:53:50;;;;;;;81.53;35.73;;;;;;;-145.18;100.00;46689.69;5030178;28;20639;-74
2022/11/21 02:56:15;;;;;;;90.43;36.13;;;;;;;-145.18;100.00;46689.69;5030154;28;20034;-74
2022/11/21 02:58:41;;;;;;;85.80;37.40;;;;;;;-145.18;100.00;46691.66;5029901;28;20026;-74
2022/11/21 03:03:41;;;;;;;81.55;36.03;;;;;;;-145.18;100.00;46685.78;4952802;22;20389;-74
2022/11/21 03:06:07;;;;;;;105.97;35.30;;;;;;;-145.18;100.00;46693.59;5014862;28;20092;-74
2022/11/21 03:08:32;;;;;;;107.33;33.70;;;;;;;-145.18;100.00;46699.47;5026291;28;20168;-76
2022/11/21 03:10:57;;;;;;;108.23;31.80;;;;;;;-145.18;100.00;46691.66;5029413;28;20079;-76
2022/11/21 03:13:23;;;;;;;157.67;34.07;;;;;;;-145.18;100.00;46689.69;5029450;28;20048;-76
2022/11/21 03:15:48;;;;;;;86.90;32.00;;;;;;;-145.18;100.00;46697.50;5029730;28;20772;-76
2022/11/21 03:18:13;;;;;;;108.80;30.43;;;;;;;-145.18;100.00;46699.47;5029657;28;20065;-76
2022/11/21 03:20:39;;;;;;;64.50;29.33;;;;;;;-145.18;100.00;46697.50;5029385;28;20033;-76
2022/11/21 03:23:04;;;;;;;125.00;31.67;;;;;;;-145.18;100.00;46689.69;5012039;28;20179;-76
2022/11/21 03:25:30;;;;;;;313.37;35.10;;;;;;;-145.18;100.00;46707.28;5011958;28;20486;-76
2022/11/21 03:27:55;;;;;;;145.73;31.10;;;;;;;-145.18;100.00;46701.41;5028979;28;20115;-76
2022/11/21 03:30:22;;;;;;;220.07;33.03;;;;;;;-145.18;100.00;46695.56;5029642;28;20052;-76
2022/11/21 03:32:47;;;;;;;89.13;30.57;;;;;;;-145.18;100.00;46697.50;5031786;28;20445;-77
2022/11/21 03:35:13;;;;;;;118.23;31.37;;;;;;;-145.18;100.00;46695.56;5033141;28;20277;-77
2022/11/21 03:37:39;;;;;;;100.90;31.57;;;;;;;-145.18;100.00;46705.31;5032622;28;20083;-76
2022/11/21 03:40:05;;;;;;;207.37;32.57;;;;;;;-145.18;100.00;46689.69;5015441;28;20751;-76
2022/11/21 03:42:31;;;;;;;84.77;30.77;;;;;;;-145.18;100.00;46691.66;5014952;28;20635;-76
2022/11/21 03:44:56;;;;;;;123.00;30.97;;;;;;;-145.18;100.00;46685.78;5015267;28;20416;-76
2022/11/21 03:47:23;;;;;;;151.67;30.43;;;;;;;-145.18;100.00;46699.47;5037999;28;20041;-76
2022/11/21 03:49:48;;;;;;;90.00;30.33;;;;;;;-145.18;100.00;46703.38;5053253;28;20075;-76
2022/11/21 03:52:14;;;;;;;84.83;29.17;;;;;;;-145.18;100.00;46699.47;5053193;28;20317;-77
2022/11/21 03:54:39;;;;;;;116.33;29.20;;;;;;;-145.18;100.00;46693.59;5052973;28;20040;-76
2022/11/21 03:57:04;;;;;;;130.13;30.07;;;;;;;-145.18;100.00;46701.41;5052767;28;20033;-77
2022/11/21 03:59:30;;;;;;;161.60;29.87;;;;;;;-145.18;100.00;46707.28;5035430;28;20044;-76
2022/11/21 04:01:55;;;;;;;191.40;30.43;;;;;;;-145.18;100.00;46691.66;5042494;28;20033;-76
2022/11/21 04:04:20;;;;;;;103.07;28.53;;;;;;;-145.18;100.00;46683.84;5033167;28;20040;-77
2022/11/21 04:06:46;;;;;;;187.37;30.63;;;;;;;-145.18;100.00;46697.50;5032759;28;20045;-76
2022/11/21 04:09:12;;;;;;;115.63;28.77;;;;;;;-145.18;100.00;46701.41;5001172;28;20096;-76
2022/11/21 04:11:37;;;;;;;182.17;30.73;;;;;;;-145.18;100.00;46705.31;4993161;28;20042;-76
2022/11/21 04:14:03;;;;;;;137.67;28.80;;;;;;;-145.18;100.00;46695.56;4993026;28;20038;-76
2022/11/21 04:16:28;;;;;;;127.83;29.20;;;;;;;-145.18;100.00;46701.41;4993381;28;20537;-76
2022/11/21 04:18:53;;;;;;;111.13;26.33;;;;;;;-145.18;100.00;46703.38;4992845;28;20070;-76
2022/11/21 04:21:19;;;;;;;132.13;26.30;;;;;;;-145.18;100.00;46697.50;4993257;28;20045;-76
2022/11/21 04:23:44;;;;;;;83.43;27.50;;;;;;;-145.18;100.00;46699.47;4992710;28;20066;-76
2022/11/21 04:26:09;;;;;;;91.03;28.10;;;;;;;-145.18;100.00;46693.59;4992001;28;20034;-76
2022/11/21 04:28:35;;;;;;;205.20;28.87;;;;;;;-145.18;100.00;46695.56;4992927;28;20073;-76
2022/11/21 04:31:07;;;;;;;169.87;29.17;;;;;;;-145.18;100.00;46697.50;4992888;28;20049;-76
2022/11/21 04:33:33;;;;;;;117.80;30.40;;;;;;;-145.18;100.00;46691.66;4992963;28;20034;-76
2022/11/21 04:35:59;;;;;;;153.23;30.37;;;;;;;-145.18;100.00;46697.50;4975618;28;20287;-76
2022/11/21 04:38:24;;;;;;;250.40;34.23;;;;;;;-145.18;100.00;46689.69;4975488;28;20420;-76
2022/11/21 04:40:49;;;;;;;143.73;33.37;;;;;;;-145.18;100.00;46697.50;4992755;28;20114;-76
2022/11/21 04:43:15;;;;;;;253.73;33.17;;;;;;;-145.18;100.00;46689.69;4974926;28;20092;-76
2022/11/21 04:45:40;;;;;;;141.87;31.13;;;;;;;-145.18;100.00;46693.59;4992402;28;20034;-76
2022/11/21 04:48:06;;;;;;;147.13;30.17;;;;;;;-145.18;100.00;46701.41;4992615;28;20030;-76
2022/11/21 04:50:31;;;;;;;210.40;29.83;;;;;;;-145.18;100.00;46691.66;4992848;28;20399;-76
2022/11/21 04:52:56;;;;;;;147.83;29.30;;;;;;;-145.18;100.00;46689.69;4992299;28;20034;-77
2022/11/21 04:55:26;;;;;;;164.53;30.93;;;;;;;-145.18;100.00;46701.41;4994211;28;20542;-77
2022/11/21 04:57:52;;;;;;;151.47;30.83;;;;;;;-145.18;100.00;46691.66;4994459;28;20494;-76
2022/11/21 05:00:17;;;;;;;189.40;30.33;;;;;;;-145.18;100.00;46699.47;5012174;28;20275;-77
2022/11/21 05:02:43;;;;;;;190.43;32.23;;;;;;;-145.18;100.00;46695.56;4990483;28;20061;-76
2022/11/21 05:05:09;;;;;;;144.03;28.80;;;;;;;-145.18;100.00;46691.66;4994530;28;20038;-76
2022/11/21 05:07:35;;;;;;;142.17;28.53;;;;;;;-145.18;100.00;46697.50;4995713;28;20066;-76
2022/11/21 05:10:00;;;;;;;233.47;27.13;;;;;;;-145.18;100.00;46693.59;4992410;28;20732;-76
2022/11/21 05:15:09;;;;;;;240.00;30.57;;;;;;;-145.18;100.00;46691.66;4992564;28;20037;-77
2022/11/21 05:17:35;;;;;;;155.67;27.00;;;;;;;-145.18;100.00;46697.50;4992231;28;20279;-77
2022/11/21 05:20:00;;;;;;;201.40;27.77;;;;;;;-145.18;100.00;46687.75;4992232;28;20038;-77
2022/11/21 05:22:25;;;;;;;227.80;30.13;;;;;;;-145.18;100.00;46689.69;4991941;28;20027;-77
2022/11/21 05:24:51;;;;;;;177.97;28.03;;;;;;;-145.18;100.00;46699.47;4992060;28;20479;-77
2022/11/21 05:27:16;;;;;;;161.00;30.60;;;;;;;-145.18;100.00;46693.59;4991953;28;20031;-77
2022/11/21 05:29:42;;;;;;;148.83;29.37;;;;;;;-145.18;100.00;46697.50;4991930;28;20034;-76
2022/11/21 05:32:07;;;;;;;153.43;27.53;;;;;;;-145.18;100.00;46693.59;4991719;28;20542;-76
2022/11/21 05:34:32;;;;;;;95.60;27.80;;;;;;;-145.18;100.00;46685.78;4991884;28;20034;-76
2022/11/21 05:36:58;;;;;;;166.03;29.13;;;;;;;-145.18;100.00;46693.59;4990365;28;20035;-76
2022/11/21 05:39:24;;;;;;;136.23;27.50;;;;;;;-145.18;100.00;46695.56;5006857;28;20041;-76
2022/11/21 05:41:50;;;;;;;198.47;28.97;;;;;;;-145.18;100.00;46699.47;4991802;28;20066;-76
2022/11/21 05:44:16;;;;;;;156.60;27.33;;;;;;;-145.18;100.00;46695.56;4991569;28;20636;-76
2022/11/21 05:46:41;;;;;;;107.77;25.30;;;;;;;-145.18;100.00;46695.56;4991357;28;20363;-76
2022/11/21 05:49:07;;;;;;;106.07;25.70;;;;;;;-145.18;100.00;46691.66;4991445;28;20042;-76
2022/11/21 05:51:32;;;;;;;84.37;25.53;;;;;;;-145.18;100.00;46697.50;4990191;28;20061;-76
2022/11/21 05:53:58;;;;;;;182.43;28.53;;;;;;;-145.18;100.00;46703.38;4988814;28;20403;-76
2022/11/21 05:56:24;;;;;;;138.87;25.03;;;;;;;-145.18;100.00;46695.56;4991112;28;20043;-77
2022/11/21 05:58:50;;;;;;;128.13;25.93;;;;;;;-145.18;100.00;46699.47;4989842;28;20034;-76
2022/11/21 06:03:25;;;;;;;165.20;25.73;;;;;;;-145.18;100.00;46695.56;4991226;28;20372;-76
2022/11/21 06:04:00;;;;;;;114.32;26.02;;;;;;;-145.18;100.00;46691.66;5008690;28;20042;-76
2022/11/21 06:06:26;;;;;;;69.90;23.80;;;;;;;-145.18;100.00;46691.66;5010606;28;20108;-76
2022/11/21 06:08:51;;;;;;;61.07;24.37;;;;;;;-145.18;100.00;46697.50;5022943;28;20111;-77
2022/11/21 06:11:16;;;;;;;79.33;22.77;;;;;;;-145.18;100.00;46691.66;5010536;28;20057;-76
2022/11/21 06:13:42;;;;;;;99.97;23.40;;;;;;;-145.18;100.00;46693.59;4998733;28;20065;-76
2022/11/21 06:16:10;;;;;;;52.87;21.33;;;;;;;-145.18;100.00;46693.59;5011212;28;20107;-77
2022/11/21 06:18:41;;;;;;;56.77;20.50;;;;;;;-145.18;100.00;46689.69;5010553;28;20041;-77
2022/11/21 06:21:16;;;;;;;61.53;21.50;;;;;;;-145.18;100.00;46695.56;5010953;28;20264;-77
2022/11/21 06:23:41;;;;;;;75.05;21.67;;;;;;;-145.18;100.00;46691.66;5010377;28;20362;-77
2022/11/21 06:26:11;;;;;;;51.37;21.73;;;;;;;-145.18;100.00;46699.47;5010715;28;20117;-76
2022/11/21 06:28:38;;;;;;;47.27;19.93;;;;;;;-145.18;100.00;46681.88;5010654;28;20041;-77
2022/11/21 06:31:09;;;;;;;41.10;19.83;;;;;;;-145.18;100.00;46687.75;5010598;28;20864;-77
2022/11/21 06:33:35;;;;;;;37.37;20.17;;;;;;;-145.18;100.00;46693.59;5010507;28;20268;-77
2022/11/21 06:36:10;;;;;;;34.70;20.00;;;;;;;-145.18;100.00;46691.66;5010411;28;20278;-77
2022/11/21 06:38:35;;;;;;;35.70;20.53;;;;;;;-145.18;100.00;46701.41;5010470;28;20376;-77
2022/11/21 06:41:05;;;;;;;35.33;20.70;;;;;;;-145.18;100.00;46695.56;5010980;28;20756;-77
2022/11/21 06:43:30;;;;;;;38.70;21.33;;;;;;;-145.18;100.00;46703.38;5010241;28;20618;-77
2022/11/21 06:45:55;;;;;;;46.10;22.60;;;;;;;-145.18;100.00;46699.47;5010261;28;20374;-77
2022/11/21 06:48:21;;;;;;;34.43;19.70;;;;;;;-145.18;100.00;46697.50;5029978;28;20034;-76
2022/11/21 06:50:46;;;;;;;38.73;18.90;;;;;;;-145.18;100.00;46691.66;5012374;28;20026;-76
2022/11/21 06:53:12;;;;;;;41.80;17.40;;;;;;;-145.18;100.00;46695.56;5030248;28;20061;-76
2022/11/21 06:55:37;;;;;;;50.80;19.73;;;;;;;-145.18;100.00;46691.66;5030544;28;20029;-76
2022/11/21 06:58:02;;;;;;;37.73;17.47;;;;;;;-145.18;100.00;46697.50;5030171;28;20041;-76
2022/11/21 07:00:28;;;;;;;56.40;17.97;;;;;;;-145.18;100.00;46693.59;5030457;28;20068;-76
2022/11/21 07:02:58;;;;;;;43.87;18.40;;;;;;;-145.18;100.00;46699.47;5029554;28;20068;-76
2022/11/21 07:05:24;;;;;;;62.90;19.00;;;;;;;-145.18;100.00;46693.59;5030605;28;20048;-76
2022/11/21 07:07:49;;;;;;;73.97;19.07;;;;;;;-145.18;100.00;46703.38;5032546;28;20279;-76
2022/11/21 07:10:14;;;;;;;67.93;18.40;;;;;;;-145.18;100.00;46695.56;5012505;28;20124;-76
2022/11/21 07:15:23;;;;;;;32.30;17.50;;;;;;;-145.18;100.00;46693.59;5014477;28;20121;-76
2022/11/21 07:17:49;;;;;;;43.97;18.20;;;;;;;-145.18;100.00;46693.59;5013907;28;20354;-76
2022/11/21 07:20:14;;;;;;;34.30;18.07;;;;;;;-145.18;100.00;46695.56;5013162;28;20030;-76
2022/11/21 07:22:40;;;;;;;27.53;17.20;;;;;;;-145.18;100.00;46691.66;5013886;28;20034;-76
2022/11/21 07:25:05;;;;;;;26.83;16.87;;;;;;;-145.18;100.00;46701.41;5012537;28;20026;-76
2022/11/21 07:27:30;;;;;;;30.67;17.33;;;;;;;-145.18;100.00;46691.66;5014011;28;20108;-76
2022/11/21 07:29:57;;;;;;;26.90;16.33;;;;;;;-145.18;100.00;46705.31;5012566;28;20056;-76
2022/11/21 07:32:26;;;;;;;26.93;17.20;;;;;;;-145.18;100.00;46699.47;5013633;28;20398;-76
2022/11/21 07:34:52;;;;;;;27.57;16.93;;;;;;;-145.18;100.00;46703.38;5013578;28;20275;-76
2022/11/21 07:37:18;;;;;;;25.53;17.27;;;;;;;-145.18;100.00;46701.41;5013670;28;20271;-76
2022/11/21 07:39:43;;;;;;;29.73;17.30;;;;;;;-145.18;100.00;46699.47;5009597;28;20276;-76
2022/11/21 07:42:08;;;;;;;28.93;17.70;;;;;;;-145.18;100.00;46701.41;5013844;28;20066;-76
2022/11/21 07:44:34;;;;;;;28.37;16.67;;;;;;;-145.18;100.00;46699.47;5012882;28;20398;-76
2022/11/21 07:46:59;;;;;;;31.20;17.97;;;;;;;-145.18;100.00;46705.31;5011733;28;20029;-76
2022/11/21 07:49:24;;;;;;;31.13;18.13;;;;;;;-145.18;100.00;46697.50;5012224;28;20038;-77
2022/11/21 07:51:50;;;;;;;33.77;18.10;;;;;;;-145.18;100.00;46693.59;5012725;28;20126;-77
2022/11/21 07:54:15;;;;;;;32.30;18.03;;;;;;;-145.18;100.00;46701.41;5012037;28;20040;-77
2022/11/21 07:56:41;;;;;;;29.83;17.17;;;;;;;-145.18;100.00;46695.56;5012648;28;20057;-76
2022/11/21 07:59:06;;;;;;;27.87;18.23;;;;;;;-145.18;100.00;46701.41;5011635;28;20100;-76
2022/11/21 08:01:31;;;;;;;29.87;17.67;;;;;;;-145.18;100.00;46687.75;5012442;28;20029;-77
2022/11/21 08:03:57;;;;;;;29.83;17.30;;;;;;;-145.18;100.00;46699.47;5012597;28;20133;-77
2022/11/21 08:06:22;;;;;;;31.30;17.70;;;;;;;-145.18;100.00;46703.38;5013372;28;20490;-76
2022/11/21 08:08:52;;;;;;;29.67;16.13;;;;;;;-145.18;100.00;46693.59;5012579;28;20069;-76
2022/11/21 08:11:18;;;;;;;28.03;16.50;;;;;;;-145.18;100.00;46691.66;5012759;28;20030;-76
2022/11/21 08:13:43;;;;;;;27.83;16.57;;;;;;;-145.18;100.00;46687.75;5011424;28;20640;-76
2022/11/21 08:16:08;;;;;;;25.50;16.17;;;;;;;-145.18;100.00;46689.69;5013102;28;20065;-76
2022/11/21 08:18:34;;;;;;;24.77;16.00;;;;;;;-145.18;100.00;46693.59;5012451;28;20080;-77
2022/11/21 08:21:01;;;;;;;28.03;15.13;;;;;;;-145.18;100.00;46699.47;5012455;28;20026;-77
2022/11/21 08:23:26;;;;;;;25.97;15.17;;;;;;;-145.18;100.00;46697.50;5012642;28;20030;-77
2022/11/21 08:25:52;;;;;;;24.07;15.23;;;;;;;-145.18;100.00;46695.56;5012388;28;20303;-77
2022/11/21 08:28:17;;;;;;;24.87;14.70;;;;;;;-145.18;100.00;46697.50;5012552;28;20065;-76
2022/11/21 08:30:43;;;;;;;25.23;15.43;;;;;;;-145.18;100.00;46693.59;5012417;28;20034;-77
2022/11/21 08:33:08;;;;;;;27.17;14.80;;;;;;;-145.18;100.00;46693.59;5012375;28;20058;-77
2022/11/21 08:35:37;;;;;;;27.60;15.90;;;;;;;-145.18;100.00;46695.56;5012642;28;20695;-77
2022/11/21 08:38:03;;;;;;;24.70;14.83;;;;;;;-145.18;100.00;46693.59;5011224;28;20037;-76
2022/11/21 08:40:30;;;;;;;28.53;15.07;;;;;;;-145.18;100.00;46691.66;5011293;28;20286;-76
2022/11/21 08:43:13;;;;;;;26.80;14.23;;;;;;;-145.18;100.00;46681.88;5010715;28;20065;-76
2022/11/21 08:45:39;;;;;;;28.07;14.70;;;;;;;-145.18;100.00;46683.84;5012356;28;20276;-76
2022/11/21 08:48:10;;;;;;;28.20;14.33;;;;;;;-145.18;100.00;46683.84;5010503;28;20349;-77
2022/11/21 08:50:35;;;;;;;28.63;15.20;;;;;;;-145.18;100.00;46687.75;5012155;28;20034;-77
2022/11/21 08:53:01;;;;;;;29.90;14.13;;;;;;;-145.18;100.00;46683.84;5011898;28;20274;-76
2022/11/21 08:55:27;;;;;;;29.13;13.20;;;;;;;-145.18;100.00;46681.88;5012250;28;20038;-76
2022/11/21 08:57:52;;;;;;;26.00;13.47;;;;;;;-145.18;100.00;46687.75;5011739;28;20136;-76
2022/11/21 09:00:18;;;;;;;29.37;13.97;;;;;;;-145.18;100.00;46681.88;5012316;28;20151;-76
2022/11/21 09:02:43;;;;;;;25.40;12.30;;;;;;;-145.18;100.00;46681.88;5011313;28;20104;-77
2022/11/21 09:05:09;;;;;;;28.87;13.97;;;;;;;-145.18;100.00;46679.94;5010417;28;20033;-76
2022/11/21 09:07:35;;;;;;;30.93;13.33;;;;;;;-145.18;100.00;46681.88;5012099;28;20116;-76
2022/11/21 09:10:00;;;;;;;22.47;12.70;;;;;;;-145.18;100.00;46681.88;5010719;28;20037;-76
2022/11/21 09:12:26;;;;;;;22.23;11.53;;;;;;;-145.18;100.00;46681.88;4994415;28;20038;-76
2022/11/21 09:20:40;;;;;;;28.87;13.07;;;;;;;-145.18;100.00;46681.88;4951011;29;20313;-76
2022/11/21 09:23:10;;;;;;;26.47;12.70;;;;;;;-145.18;100.00;46683.84;4998158;28;20268;-77
2022/11/21 09:25:36;;;;;;;33.90;12.80;;;;;;;-145.18;100.00;46683.84;4994879;28;20294;-77
2022/11/21 09:28:03;;;;;;;24.70;12.53;;;;;;;-145.18;100.00;46683.84;5011231;28;20287;-77
2022/11/21 09:30:28;;;;;;;26.57;12.27;;;;;;;-145.18;100.00;46683.84;5010956;28;20032;-77
2022/11/21 09:32:57;;;;;;;24.37;11.50;;;;;;;-145.18;100.00;46681.88;5011444;28;20279;-78
2022/11/21 09:35:23;;;;;;;26.33;11.27;;;;;;;-145.18;100.00;46685.78;4994090;28;20096;-77
2022/11/21 09:37:50;;;;;;;27.20;11.20;;;;;;;-145.18;100.00;46677.97;5011427;28;20318;-78
2022/11/21 09:40:16;;;;;;;24.30;12.17;;;;;;;-145.18;100.00;46683.84;5011297;28;20034;-77
2022/11/21 09:42:54;;;;;;;19.17;9.87;;;;;;;-145.18;100.00;46681.88;4993829;28;20282;-77
2022/11/21 09:45:26;;;;;;;22.73;10.27;;;;;;;-145.18;100.00;46683.84;5011648;28;20494;-77
2022/11/21 09:47:52;;;;;;;23.67;11.27;;;;;;;-145.18;100.00;46683.84;5011247;28;20409;-78
2022/11/21 09:50:28;;;;;;;21.67;10.47;;;;;;;-145.18;100.00;46679.94;5011069;28;20609;-78
2022/11/21 09:53:01;;;;;;;30.20;10.80;;;;;;;-145.18;100.00;46681.88;5011013;28;20723;-78
2022/11/21 09:55:41;;;;;;;28.90;11.57;;;;;;;-145.18;100.00;46687.75;5011256;28;20026;-78
2022/11/21 09:58:22;;;;;;;26.47;9.47;;;;;;;-145.18;100.00;46683.84;5011132;28;20302;-78
2022/11/21 10:00:50;;;;;;;23.80;9.27;;;;;;;-145.18;100.00;46687.75;5010830;28;20264;-78
2022/11/21 10:03:17;;;;;;;20.37;8.97;;;;;;;-145.18;100.00;46691.66;5010746;28;20291;-78
2022/11/21 10:05:52;;;;;;;28.10;9.23;;;;;;;-145.18;100.00;46691.66;5011287;28;20338;-78
2022/11/21 10:08:26;;;;;;;17.70;8.23;;;;;;;-145.18;100.00;46693.59;5010892;28;20287;-78
2022/11/21 10:11:03;;;;;;;16.63;8.63;;;;;;;-145.18;100.00;46691.66;5010903;28;20263;-78
2022/11/21 10:13:52;;;;;;;22.87;8.07;;;;;;;-145.18;100.00;46691.66;5011142;28;20960;-78
2022/11/21 10:16:40;;;;;;;14.73;7.37;;;;;;;-145.18;100.00;46693.59;5011142;28;20263;-78
2022/11/21 10:19:34;;;;;;;12.17;7.57;;;;;;;-145.18;100.00;46695.56;5010426;28;20310;-78
2022/11/21 10:22:06;;;;;;;20.80;7.63;;;;;;;-145.18;100.00;46695.56;5010884;28;20275;-78
2022/11/21 10:25:02;;;;;;;21.27;7.60;;;;;;;-145.18;100.00;46701.41;5010882;28;20635;-78
2022/11/21 10:27:45;;;;;;;18.35;8.25;;;;;;;-145.18;100.00;46701.41;5010950;28;20320;-78
2022/11/21 10:30:16;;;;;;;16.77;6.27;;;;;;;-145.18;100.00;46705.31;5010708;28;20059;-77
2022/11/21 10:32:45;;;;;;;18.63;6.90;;;;;;;-145.18;100.00;46705.31;4993160;28;20275;-78
2022/11/21 10:35:52;;;;;;;16.77;5.63;;;;;;;-145.18;100.00;46699.47;5010679;28;20267;-77
2022/11/21 10:38:26;;;;;;;21.23;6.10;;;;;;;-145.18;100.00;46699.47;4949955;29;20286;-78
2022/11/21 10:41:02;;;;;;;17.87;5.13;;;;;;;-145.18;100.00;46707.28;4951528;28;20031;-77
2022/11/21 10:46:14;;;;;;;12.33;5.17;;;;;;;-145.18;100.00;46705.31;5014760;28;20266;-77
2022/11/21 10:48:39;;;;;;;11.20;4.93;;;;;;;-145.18;100.00;46705.31;4996825;28;20302;-78
2022/11/21 10:51:17;;;;;;;12.10;4.90;;;;;;;-145.18;100.00;46699.47;5013302;28;20033;-78
2022/11/21 10:56:27;;;;;;;13.57;5.23;;;;;;;-145.18;100.00;46689.69;5015021;28;20294;-77
2022/11/21 10:58:55;;;;;;;12.03;4.10;;;;;;;-145.18;100.00;46677.97;5013857;28;20267;-78
2022/11/21 11:01:32;;;;;;;14.77;4.90;;;;;;;-145.18;100.00;46674.06;5014398;28;20628;-78
2022/11/21 11:04:06;;;;;;;15.33;4.50;;;;;;;-145.18;100.00;46666.25;5013924;28;20686;-77
2022/11/21 11:06:32;;;;;;;12.23;4.70;;;;;;;-145.18;100.00;46648.69;5014323;28;20275;-78
2022/11/21 11:08:57;;;;;;;15.50;5.23;;;;;;;-145.18;100.00;46617.41;4996260;28;20299;-77
2022/11/21 11:11:25;;;;;;;14.77;4.70;;;;;;;-145.18;100.00;46601.78;4980233;28;20038;-77
2022/11/21 11:13:59;;;;;;;13.53;4.47;;;;;;;-145.18;100.00;46595.94;5013909;28;20372;-78